Time;durP1;ratioP1;P1;durP2;ratioP2;P2;SDS_P1;SDS_P2;PMS_P1;PMS_P2;Temp;Humidity;BMP_temperature;BMP_pressure;BME280_temperature;BME280_humidity;BME280_pressure;Samples;Min_cycle;Max_cycle;Signal;HPM_P1;HPM_P2
2022/07/13 00:01:21;;;;;;;2.35;1.50;;;22.00;78.70;;;;;;5046119;28;20025;-66
2022/07/13 00:03:47;;;;;;;5.75;1.70;;;22.00;78.90;;;;;;5045422;28;20044;-68
2022/07/13 00:06:13;;;;;;;2.78;1.55;;;22.00;78.90;;;;;;5045373;28;20021;-68
2022/07/13 00:08:38;;;;;;;5.75;1.80;;;21.90;79.10;;;;;;5045754;28;20029;-67
2022/07/13 00:11:04;;;;;;;4.60;1.98;;;21.90;79.00;;;;;;5046671;28;20025;-68
2022/07/13 00:13:30;;;;;;;4.88;1.80;;;21.90;79.10;;;;;;5061755;28;20025;-68
2022/07/13 00:15:55;;;;;;;8.95;1.70;;;22.00;78.90;;;;;;5046883;28;20017;-68
2022/07/13 00:18:21;;;;;;;3.78;1.70;;;22.00;79.60;;;;;;5061972;28;20063;-67
2022/07/13 00:20:47;;;;;;;7.05;1.95;;;22.00;78.80;;;;;;5061611;28;20040;-68
2022/07/13 00:23:12;;;;;;;6.90;1.77;;;22.00;78.90;;;;;;5062125;28;20093;-68
2022/07/13 00:25:38;;;;;;;3.67;1.88;;;21.90;78.90;;;;;;5045874;28;20033;-67
2022/07/13 00:28:04;;;;;;;6.60;2.15;;;21.90;79.00;;;;;;5044923;28;20032;-68
2022/07/13 00:30:29;;;;;;;6.20;2.08;;;21.90;78.80;;;;;;5044421;28;20029;-67
2022/07/13 00:32:55;;;;;;;4.82;2.10;;;21.90;78.80;;;;;;5046563;28;20022;-68
2022/07/13 00:35:20;;;;;;;6.05;2.17;;;21.80;78.70;;;;;;5061140;28;20032;-67
2022/07/13 00:37:46;;;;;;;5.03;1.92;;;21.80;78.90;;;;;;5061550;28;20087;-68
2022/07/13 00:40:12;;;;;;;4.93;2.17;;;21.70;79.00;;;;;;5045509;28;20091;-68
2022/07/13 00:42:38;;;;;;;4.03;2.00;;;21.70;79.10;;;;;;5046199;28;20044;-68
2022/07/13 00:45:04;;;;;;;2.15;1.90;;;21.70;79.20;;;;;;5044300;28;20033;-67
2022/07/13 00:47:32;;;;;;;2.65;1.77;;;21.70;79.00;;;;;;5045946;28;20017;-68
2022/07/13 00:50:01;;;;;;;3.45;2.10;;;21.60;79.20;;;;;;5045717;28;20308;-67
2022/07/13 00:52:27;;;;;;;3.50;2.20;;;21.60;79.20;;;;;;5045616;28;20370;-68
2022/07/13 00:54:53;;;;;;;5.72;2.10;;;21.50;79.50;;;;;;5045806;28;20033;-67
2022/07/13 00:57:19;;;;;;;6.22;2.35;;;21.50;79.80;;;;;;5045587;28;20021;-68
2022/07/13 00:59:46;;;;;;;7.50;2.50;;;21.50;79.40;;;;;;5044993;28;20108;-67
2022/07/13 01:02:12;;;;;;;5.68;2.38;;;21.50;80.00;;;;;;5044729;28;20029;-68
2022/07/13 01:04:38;;;;;;;3.45;2.20;;;21.40;79.80;;;;;;5045037;28;20048;-67
2022/07/13 01:07:05;;;;;;;5.53;2.22;;;21.40;79.80;;;;;;5043717;28;20080;-67
2022/07/13 01:09:32;;;;;;;8.05;2.20;;;21.40;79.80;;;;;;5057985;28;20032;-68
2022/07/13 01:11:58;;;;;;;4.88;2.13;;;21.30;80.00;;;;;;5065268;28;20059;-68
2022/07/13 01:14:24;;;;;;;4.45;1.73;;;21.30;80.20;;;;;;5063863;28;20302;-68
2022/07/13 01:16:51;;;;;;;2.20;1.45;;;21.20;80.40;;;;;;5064209;28;20040;-67
2022/07/13 01:19:17;;;;;;;3.60;1.77;;;21.20;80.70;;;;;;5065614;28;20031;-67
2022/07/13 01:21:45;;;;;;;2.75;1.70;;;21.10;80.70;;;;;;5065308;28;20017;-68
2022/07/13 01:24:12;;;;;;;1.70;1.23;;;21.10;81.10;;;;;;5064266;28;20040;-68
2022/07/13 01:26:39;;;;;;;2.75;1.40;;;21.10;81.20;;;;;;5065148;28;20349;-68
2022/07/13 01:29:06;;;;;;;7.53;1.52;;;21.10;81.30;;;;;;5063478;28;20324;-68
2022/07/13 01:31:37;;;;;;;3.08;1.30;;;21.00;81.60;;;;;;5063489;28;20025;-67
2022/07/13 01:34:04;;;;;;;4.47;1.30;;;21.00;81.90;;;;;;5064227;28;20303;-67
2022/07/13 01:36:30;;;;;;;4.18;1.30;;;20.90;82.10;;;;;;5063877;28;20093;-67
2022/07/13 01:38:57;;;;;;;2.95;1.00;;;20.90;82.30;;;;;;5063871;28;20189;-68
2022/07/13 01:41:24;;;;;;;2.60;1.65;;;20.90;82.50;;;;;;5064585;28;20308;-68
2022/07/13 01:43:50;;;;;;;4.30;1.45;;;20.80;82.80;;;;;;5046856;28;20037;-68
2022/07/13 01:46:16;;;;;;;3.33;1.50;;;20.80;83.00;;;;;;5061324;28;20092;-67
2022/07/13 01:48:42;;;;;;;5.78;1.48;;;20.90;83.20;;;;;;5060418;28;20080;-67
2022/07/13 01:51:08;;;;;;;9.93;1.30;;;20.90;83.50;;;;;;5044524;28;20033;-67
2022/07/13 01:53:33;;;;;;;6.50;1.80;;;20.80;83.80;;;;;;5044543;28;20132;-68
2022/07/13 01:55:59;;;;;;;4.03;1.50;;;20.70;83.90;;;;;;5045046;28;20087;-68
2022/07/13 01:58:26;;;;;;;3.80;1.33;;;20.70;84.50;;;;;;5043996;28;20080;-68
2022/07/13 02:00:52;;;;;;;6.35;1.33;;;20.70;85.00;;;;;;5026616;28;20237;-68
2022/07/13 02:03:19;;;;;;;4.88;1.42;;;20.70;86.10;;;;;;5043800;28;20041;-68
2022/07/13 02:05:45;;;;;;;3.92;1.48;;;20.60;87.00;;;;;;5043150;28;20024;-67
2022/07/13 02:08:11;;;;;;;6.38;1.58;;;20.50;87.80;;;;;;5043003;28;20216;-67
2022/07/13 02:10:37;;;;;;;5.68;1.60;;;20.40;88.60;;;;;;5044831;28;20127;-68
2022/07/13 02:13:04;;;;;;;2.70;1.70;;;20.40;89.30;;;;;;5059730;28;20060;-67
2022/07/13 02:15:30;;;;;;;4.10;1.58;;;20.30;89.90;;;;;;5044410;28;20359;-67
2022/07/13 02:17:55;;;;;;;5.35;1.83;;;20.30;90.10;;;;;;5060020;28;20025;-67
2022/07/13 02:20:21;;;;;;;4.68;1.70;;;20.30;90.30;;;;;;5058576;28;20021;-68
2022/07/13 02:22:47;;;;;;;4.88;1.80;;;20.20;90.60;;;;;;5044077;28;20032;-68
2022/07/13 02:25:13;;;;;;;3.80;1.75;;;20.20;90.90;;;;;;5044172;28;20043;-67
2022/07/13 02:27:40;;;;;;;3.60;1.60;;;20.20;91.20;;;;;;5058725;28;20091;-68
2022/07/13 02:30:06;;;;;;;3.22;1.80;;;20.20;91.40;;;;;;5042259;28;20040;-68
2022/07/13 02:32:32;;;;;;;2.40;1.38;;;20.10;91.60;;;;;;5059605;28;20025;-67
2022/07/13 02:34:58;;;;;;;6.82;1.98;;;20.10;91.70;;;;;;5043408;28;20103;-67
2022/07/13 02:37:23;;;;;;;2.67;1.75;;;20.10;91.90;;;;;;5043584;28;20063;-67
2022/07/13 02:39:51;;;;;;;6.18;2.10;;;20.10;92.10;;;;;;5043753;28;20022;-68
2022/07/13 02:42:17;;;;;;;5.10;1.80;;;20.00;92.30;;;;;;5043902;28;20044;-67
2022/07/13 02:44:42;;;;;;;5.25;1.75;;;20.00;92.60;;;;;;5043400;28;20216;-67
2022/07/13 02:47:08;;;;;;;4.70;1.80;;;19.90;92.60;;;;;;5059235;28;20037;-67
2022/07/13 02:49:34;;;;;;;5.47;1.98;;;19.90;92.90;;;;;;5044017;28;20025;-68
2022/07/13 02:51:59;;;;;;;4.28;2.35;;;20.00;93.10;;;;;;5059493;28;20029;-67
2022/07/13 02:54:25;;;;;;;6.95;1.90;;;20.00;93.20;;;;;;5042920;28;20221;-68
2022/07/13 02:56:50;;;;;;;4.80;2.25;;;19.90;93.30;;;;;;5043641;28;20022;-67
2022/07/13 02:59:17;;;;;;;3.78;2.42;;;19.90;93.60;;;;;;5042972;28;20065;-67
2022/07/13 03:01:43;;;;;;;4.60;2.38;;;19.90;94.00;;;;;;5041819;28;20032;-67
2022/07/13 03:04:09;;;;;;;4.32;2.58;;;19.70;94.30;;;;;;5042188;28;20029;-67
2022/07/13 03:06:34;;;;;;;4.43;2.50;;;19.70;94.60;;;;;;5043349;28;20087;-67
2022/07/13 03:09:01;;;;;;;4.95;2.35;;;19.70;94.80;;;;;;5042735;28;20036;-68
2022/07/13 03:11:27;;;;;;;5.07;2.20;;;19.70;95.10;;;;;;5042606;28;20037;-67
2022/07/13 03:13:52;;;;;;;7.93;2.53;;;19.60;95.40;;;;;;5043355;28;20022;-68
2022/07/13 03:16:18;;;;;;;5.80;2.50;;;19.50;95.70;;;;;;5043005;28;20037;-67
2022/07/13 03:18:43;;;;;;;7.55;2.60;;;19.50;96.10;;;;;;5058598;28;20028;-68
2022/07/13 03:21:09;;;;;;;6.15;2.58;;;19.50;96.00;;;;;;5043055;28;20091;-67
2022/07/13 03:23:36;;;;;;;6.15;2.50;;;19.50;96.20;;;;;;5043197;28;20390;-67
2022/07/13 03:26:01;;;;;;;4.75;2.83;;;19.40;96.30;;;;;;5042915;28;20033;-67
2022/07/13 03:28:27;;;;;;;5.32;2.65;;;19.40;96.50;;;;;;5042616;28;20036;-67
2022/07/13 03:30:53;;;;;;;4.10;2.30;;;19.40;96.60;;;;;;5041387;28;20309;-67
2022/07/13 03:33:18;;;;;;;4.95;2.85;;;19.40;96.70;;;;;;5043223;28;20024;-68
2022/07/13 03:35:44;;;;;;;4.10;2.60;;;19.40;96.70;;;;;;5042788;28;20477;-68
2022/07/13 03:38:10;;;;;;;5.55;2.70;;;19.40;96.70;;;;;;5058369;28;20300;-67
2022/07/13 03:40:35;;;;;;;5.00;2.75;;;19.40;96.70;;;;;;5042001;28;20069;-68
2022/07/13 03:43:01;;;;;;;5.03;3.00;;;19.40;96.80;;;;;;5042776;28;20025;-68
2022/07/13 03:45:27;;;;;;;4.13;2.67;;;19.40;96.70;;;;;;5042793;28;20029;-67
2022/07/13 03:47:52;;;;;;;5.47;2.90;;;19.30;96.90;;;;;;5042981;28;20028;-67
2022/07/13 03:50:18;;;;;;;8.57;2.90;;;19.40;97.00;;;;;;5042971;28;20071;-67
2022/07/13 03:52:44;;;;;;;10.57;3.25;;;19.30;97.00;;;;;;5042493;28;20316;-67
2022/07/13 03:55:09;;;;;;;11.95;4.13;;;19.30;97.00;;;;;;5041437;28;20049;-67
2022/07/13 03:57:35;;;;;;;5.35;3.00;;;19.40;97.00;;;;;;5041750;28;20071;-67
2022/07/13 04:00:01;;;;;;;4.55;2.88;;;19.30;97.00;;;;;;5042120;28;20308;-68
2022/07/13 04:02:26;;;;;;;5.00;2.78;;;19.30;96.90;;;;;;5042624;28;20037;-67
2022/07/13 04:04:52;;;;;;;7.50;2.58;;;19.20;97.00;;;;;;5042872;28;20127;-67
2022/07/13 04:07:17;;;;;;;4.90;2.90;;;19.30;97.10;;;;;;5041565;28;20334;-68
2022/07/13 04:09:43;;;;;;;8.40;3.30;;;19.30;97.10;;;;;;5042032;28;20028;-66
2022/07/13 04:12:09;;;;;;;5.20;3.13;;;19.20;97.20;;;;;;5042712;28;20029;-67
2022/07/13 04:14:34;;;;;;;8.40;3.45;;;19.20;97.40;;;;;;5042636;28;20030;-67
2022/07/13 04:17:00;;;;;;;7.95;3.40;;;19.10;97.60;;;;;;5042602;28;20036;-67
2022/07/13 04:19:26;;;;;;;7.28;3.28;;;19.10;97.60;;;;;;5042360;28;20021;-66
2022/07/13 04:21:51;;;;;;;4.68;3.28;;;19.10;97.70;;;;;;5042080;28;20200;-67
2022/07/13 04:24:17;;;;;;;9.35;3.53;;;19.10;97.70;;;;;;5042639;28;20355;-66
2022/07/13 04:26:43;;;;;;;5.47;3.38;;;19.10;97.70;;;;;;5042368;28;20025;-67
2022/07/13 04:29:08;;;;;;;5.63;3.05;;;19.10;97.40;;;;;;5042010;28;20326;-66
2022/07/13 04:31:34;;;;;;;7.20;3.00;;;19.10;97.40;;;;;;5042084;28;20029;-67
2022/07/13 04:33:59;;;;;;;3.88;3.20;;;19.10;97.20;;;;;;5040959;28;20022;-67
2022/07/13 04:36:25;;;;;;;7.45;3.05;;;19.20;97.10;;;;;;5042447;28;20087;-67
2022/07/13 04:38:51;;;;;;;6.32;3.00;;;19.20;97.10;;;;;;5042524;28;20029;-66
2022/07/13 04:41:16;;;;;;;4.25;2.70;;;19.20;97.00;;;;;;5042303;28;20089;-67
2022/07/13 04:43:45;;;;;;;4.18;2.50;;;19.20;96.80;;;;;;5043566;28;20017;-66
2022/07/13 04:46:12;;;;;;;5.00;2.65;;;19.40;96.50;;;;;;5045695;28;20041;-67
2022/07/13 04:48:38;;;;;;;7.97;2.30;;;19.50;96.40;;;;;;5046345;28;20025;-66
2022/07/13 04:51:04;;;;;;;7.00;2.70;;;19.70;95.90;;;;;;5045615;28;20304;-66
2022/07/13 04:53:30;;;;;;;5.47;2.63;;;20.00;95.20;;;;;;5046000;28;20331;-67
2022/07/13 04:55:56;;;;;;;7.60;2.28;;;20.30;94.60;;;;;;5045641;28;20021;-67
2022/07/13 04:58:21;;;;;;;6.95;2.72;;;20.50;94.10;;;;;;5045971;28;20212;-66
2022/07/13 05:00:47;;;;;;;3.45;1.75;;;20.70;93.40;;;;;;5045460;28;20074;-67
2022/07/13 05:03:13;;;;;;;4.22;1.95;;;20.80;92.70;;;;;;5044821;28;20041;-66
2022/07/13 05:05:39;;;;;;;5.55;1.77;;;21.00;92.10;;;;;;5045326;28;20051;-66
2022/07/13 05:08:05;;;;;;;4.75;2.28;;;21.20;92.00;;;;;;5046049;28;20032;-67
2022/07/13 05:10:32;;;;;;;5.10;2.13;;;21.30;91.70;;;;;;5046070;28;20025;-67
2022/07/13 05:12:57;;;;;;;9.95;1.98;;;21.40;91.30;;;;;;5045324;28;20021;-67
2022/07/13 05:15:23;;;;;;;6.50;1.90;;;21.40;91.40;;;;;;5044384;28;20055;-67
2022/07/13 05:17:50;;;;;;;4.78;2.15;;;21.40;91.40;;;;;;5045412;28;20021;-67
2022/07/13 05:20:16;;;;;;;2.55;1.50;;;21.60;90.90;;;;;;5045218;28;20044;-67
2022/07/13 05:22:41;;;;;;;4.20;2.05;;;21.80;90.50;;;;;;5060283;28;20040;-66
2022/07/13 05:25:07;;;;;;;3.15;2.00;;;21.90;89.80;;;;;;5060441;28;20057;-67
2022/07/13 05:27:33;;;;;;;6.65;2.30;;;21.70;89.90;;;;;;5045176;28;20387;-66
2022/07/13 05:29:59;;;;;;;2.70;1.73;;;21.70;90.00;;;;;;5044876;28;20029;-66
2022/07/13 05:32:24;;;;;;;5.15;1.98;;;21.50;90.10;;;;;;5060053;28;20063;-66
2022/07/13 05:34:50;;;;;;;4.10;1.90;;;21.40;90.40;;;;;;5044742;28;20044;-67
2022/07/13 05:37:16;;;;;;;5.30;2.50;;;21.30;90.50;;;;;;5045954;28;20296;-66
2022/07/13 05:39:43;;;;;;;3.95;1.73;;;21.30;90.60;;;;;;5045346;28;20084;-67
2022/07/13 05:42:09;;;;;;;2.33;1.90;;;21.30;90.70;;;;;;5060155;28;20414;-67
2022/07/13 05:44:35;;;;;;;3.03;1.70;;;21.20;89.00;;;;;;5044344;28;20033;-67
2022/07/13 05:47:01;;;;;;;2.25;1.70;;;21.20;88.60;;;;;;5044047;28;20299;-67
2022/07/13 05:49:26;;;;;;;3.13;1.63;;;21.10;89.30;;;;;;5044558;28;20033;-66
2022/07/13 05:51:53;;;;;;;3.42;1.90;;;21.10;89.20;;;;;;5044932;28;20025;-66
2022/07/13 05:54:18;;;;;;;3.80;1.58;;;21.10;89.30;;;;;;5043603;28;20097;-68
2022/07/13 05:56:44;;;;;;;2.85;1.73;;;21.00;89.70;;;;;;5043259;28;20067;-67
2022/07/13 05:59:10;;;;;;;3.90;1.80;;;21.00;89.40;;;;;;5044385;28;20056;-67
2022/07/13 06:01:35;;;;;;;4.32;1.90;;;20.90;89.80;;;;;;5044617;28;20080;-66
2022/07/13 06:04:01;;;;;;;2.65;1.77;;;20.80;90.00;;;;;;5044823;28;20244;-67
2022/07/13 06:06:27;;;;;;;4.90;2.15;;;20.80;90.10;;;;;;5044059;28;20051;-67
2022/07/13 06:08:52;;;;;;;4.15;1.80;;;20.70;90.40;;;;;;5044459;28;20040;-67
2022/07/13 06:11:18;;;;;;;3.95;1.90;;;20.70;90.50;;;;;;5044227;28;20206;-67
2022/07/13 06:13:44;;;;;;;5.00;2.08;;;20.70;90.40;;;;;;5043445;28;20094;-67
2022/07/13 06:16:10;;;;;;;7.03;2.42;;;20.70;90.50;;;;;;5044339;28;20059;-67
2022/07/13 06:18:36;;;;;;;5.57;2.05;;;20.70;90.60;;;;;;5042305;28;20013;-67
2022/07/13 06:21:01;;;;;;;6.60;1.80;;;20.80;90.50;;;;;;5044366;28;20029;-67
2022/07/13 06:23:27;;;;;;;3.80;1.90;;;20.80;90.40;;;;;;5042548;28;20021;-66
2022/07/13 06:25:53;;;;;;;2.13;1.90;;;20.80;90.40;;;;;;5042740;28;20021;-67
2022/07/13 06:28:19;;;;;;;2.40;2.00;;;20.80;90.50;;;;;;5043579;28;20025;-67
2022/07/13 06:30:45;;;;;;;5.35;1.85;;;20.80;90.50;;;;;;5042008;28;20028;-67
2022/07/13 06:33:10;;;;;;;4.45;2.00;;;20.90;90.40;;;;;;5042894;28;20025;-67
2022/07/13 06:35:36;;;;;;;3.63;1.88;;;21.00;90.30;;;;;;5041282;28;20052;-67
2022/07/13 06:38:02;;;;;;;6.10;1.73;;;21.20;90.00;;;;;;5026730;28;20029;-68
2022/07/13 06:40:28;;;;;;;4.20;1.98;;;21.30;90.00;;;;;;5042524;28;20017;-69
2022/07/13 06:42:54;;;;;;;2.88;1.70;;;21.50;89.40;;;;;;5041853;28;20224;-68
2022/07/13 06:45:22;;;;;;;3.28;1.75;;;21.60;89.30;;;;;;5043080;28;20353;-68
2022/07/13 06:47:48;;;;;;;4.20;1.65;;;21.60;88.90;;;;;;5042956;28;20048;-69
2022/07/13 06:50:14;;;;;;;2.45;1.77;;;21.70;88.30;;;;;;5044434;28;20108;-68
2022/07/13 06:52:40;;;;;;;5.30;1.98;;;21.70;88.50;;;;;;5043240;28;20037;-68
2022/07/13 06:55:08;;;;;;;5.05;1.73;;;21.60;89.00;;;;;;5043264;28;20364;-68
2022/07/13 06:57:34;;;;;;;2.17;1.98;;;21.60;88.70;;;;;;5039103;28;20021;-68
2022/07/13 06:59:59;;;;;;;6.30;1.90;;;21.60;89.00;;;;;;5031040;28;20115;-68
2022/07/13 07:02:25;;;;;;;6.68;2.40;;;21.70;89.00;;;;;;5039277;28;20049;-68
2022/07/13 07:04:51;;;;;;;5.07;2.35;;;21.60;89.50;;;;;;5039943;28;20036;-69
2022/07/13 07:07:17;;;;;;;4.60;2.25;;;21.60;89.60;;;;;;5040111;28;20022;-68
2022/07/13 07:09:42;;;;;;;9.77;2.50;;;21.60;90.00;;;;;;5041063;28;20029;-69
2022/07/13 07:12:08;;;;;;;5.53;2.17;;;21.70;89.50;;;;;;5039778;28;20056;-68
2022/07/13 07:14:34;;;;;;;2.63;1.90;;;21.80;89.20;;;;;;5039118;28;20068;-69
2022/07/13 07:17:02;;;;;;;5.55;2.08;;;21.90;89.10;;;;;;5039055;28;20051;-67
2022/07/13 07:19:28;;;;;;;6.00;2.03;;;22.00;88.90;;;;;;5041651;28;20130;-68
2022/07/13 07:21:54;;;;;;;7.35;2.00;;;21.70;89.30;;;;;;5053070;28;20033;-69
2022/07/13 07:24:20;;;;;;;5.78;2.03;;;21.70;89.80;;;;;;5050413;28;20116;-69
2022/07/13 07:26:47;;;;;;;2.88;1.85;;;21.80;89.90;;;;;;5044200;28;20376;-69
2022/07/13 07:29:13;;;;;;;3.90;1.80;;;21.90;89.60;;;;;;5026430;28;20055;-68
2022/07/13 07:31:39;;;;;;;3.28;1.95;;;21.80;90.10;;;;;;5039874;28;20084;-69
2022/07/13 07:34:04;;;;;;;3.75;1.90;;;21.90;90.00;;;;;;5056266;28;20029;-70
2022/07/13 07:36:30;;;;;;;6.18;2.25;;;21.90;90.00;;;;;;5040179;28;20354;-68
2022/07/13 07:38:56;;;;;;;3.50;2.20;;;21.80;90.20;;;;;;5049642;28;20029;-68
2022/07/13 07:41:22;;;;;;;3.45;1.90;;;21.90;90.20;;;;;;5052358;28;20041;-67
2022/07/13 07:43:48;;;;;;;4.68;2.33;;;22.10;90.00;;;;;;5051397;28;20216;-71
2022/07/13 07:46:14;;;;;;;2.40;1.73;;;22.20;89.50;;;;;;5059273;28;20189;-68
2022/07/13 07:48:40;;;;;;;10.05;2.28;;;22.00;90.10;;;;;;5042281;28;20033;-69
2022/07/13 07:51:05;;;;;;;4.40;1.77;;;22.10;90.00;;;;;;5040803;28;20249;-71
2022/07/13 07:53:31;;;;;;;6.70;2.20;;;22.00;90.10;;;;;;5040950;28;20021;-71
2022/07/13 07:56:00;;;;;;;2.25;1.85;;;22.10;90.20;;;;;;5048768;28;20037;-70
2022/07/13 07:58:25;;;;;;;9.30;2.20;;;22.20;89.70;;;;;;5049041;28;20044;-69
2022/07/13 08:00:51;;;;;;;7.47;2.58;;;22.10;90.00;;;;;;5040016;28;20060;-71
2022/07/13 08:03:17;;;;;;;5.13;2.33;;;22.20;90.20;;;;;;5032816;28;20033;-68
2022/07/13 08:05:47;;;;;;;5.53;2.40;;;22.30;89.60;;;;;;5042089;28;20032;-69
2022/07/13 08:08:12;;;;;;;6.38;2.50;;;22.30;89.40;;;;;;5040800;28;20197;-71
2022/07/13 08:10:39;;;;;;;3.20;2.00;;;22.20;89.90;;;;;;5063997;28;20025;-71
2022/07/13 08:13:05;;;;;;;6.13;1.92;;;22.30;89.70;;;;;;5050060;28;20030;-70
2022/07/13 08:15:31;;;;;;;6.85;2.30;;;22.40;89.40;;;;;;5041308;28;20029;-72
2022/07/13 08:17:57;;;;;;;6.43;2.72;;;22.60;88.60;;;;;;5041557;28;20296;-71
2022/07/13 08:20:23;;;;;;;7.28;2.30;;;22.70;88.20;;;;;;5046583;28;20036;-72
2022/07/13 08:22:50;;;;;;;6.43;2.00;;;22.70;88.30;;;;;;5046249;28;20108;-71
2022/07/13 08:25:16;;;;;;;5.90;2.20;;;22.70;87.30;;;;;;5046177;28;20030;-71
2022/07/13 08:27:42;;;;;;;5.82;2.58;;;22.60;88.00;;;;;;5045384;28;20103;-70
2022/07/13 08:30:08;;;;;;;6.72;2.47;;;22.50;88.50;;;;;;5044029;28;20025;-71
2022/07/13 08:32:33;;;;;;;6.65;2.53;;;22.50;88.70;;;;;;5042231;28;20030;-69
2022/07/13 08:40:30;;;;;;;5.88;2.25;;;22.70;88.30;;;;;;5029455;28;20029;-70
2022/07/13 08:42:56;;;;;;;6.60;2.20;;;22.70;87.80;;;;;;5043496;28;20068;-71
2022/07/13 08:45:24;;;;;;;2.47;2.15;;;22.80;87.30;;;;;;5045029;28;20031;-70
2022/07/13 08:47:49;;;;;;;3.55;2.20;;;22.70;87.80;;;;;;5044514;28;20449;-71
2022/07/13 08:50:19;;;;;;;6.32;2.47;;;22.70;88.10;;;;;;5043638;28;20346;-68
2022/07/13 08:52:45;;;;;;;3.85;2.38;;;22.90;87.40;;;;;;5044606;28;20044;-70
2022/07/13 08:55:11;;;;;;;4.43;2.60;;;22.90;87.30;;;;;;5049524;28;20351;-70
2022/07/13 08:57:38;;;;;;;4.78;2.40;;;22.50;88.10;;;;;;5061763;28;20013;-71
2022/07/13 09:00:08;;;;;;;8.02;2.25;;;22.40;88.80;;;;;;5041835;28;20060;-72
2022/07/13 09:02:34;;;;;;;2.53;1.80;;;22.40;88.70;;;;;;5041680;28;20045;-68
2022/07/13 09:05:04;;;;;;;5.65;2.25;;;22.50;88.50;;;;;;5042885;28;20249;-72
2022/07/13 09:07:30;;;;;;;6.78;2.40;;;22.70;87.60;;;;;;5042188;28;20029;-68
2022/07/13 09:09:56;;;;;;;3.88;2.15;;;22.50;87.60;;;;;;5040546;28;20029;-74
2022/07/13 09:18:00;;;;;;;5.22;2.40;;;22.40;88.30;;;;;;5345411;23;20064;-62
2022/07/13 09:20:26;;;;;;;3.88;2.10;;;22.40;88.50;;;;;;4908826;29;20032;-62
2022/07/13 09:22:55;;;;;;;3.35;1.95;;;22.40;88.50;;;;;;4908293;29;20037;-77
